createdAt,value
2023-02-04T00:02:22.555Z,102116.78
2023-02-04T00:04:52.820Z,102114.34
2023-02-04T00:07:23.984Z,102119.63
2023-02-04T00:09:56.743Z,102125.34
2023-02-04T00:12:27.010Z,102127.16
2023-02-04T00:14:57.157Z,102134.22
2023-02-04T00:17:27.401Z,102138.81
2023-02-04T00:19:57.726Z,102145.63
2023-02-04T00:22:29.239Z,102146.44
2023-02-04T00:25:02.201Z,102137.81
2023-02-04T00:27:32.322Z,102150.75
2023-02-04T00:30:02.553Z,102148.72
2023-02-04T00:32:32.699Z,102152.41
2023-02-04T00:35:04.788Z,102153.66
2023-02-04T00:37:35.048Z,102162.38
2023-02-04T00:40:08.054Z,102173.09
2023-02-04T00:42:38.620Z,102175.19
2023-02-04T00:45:09.287Z,102179.91
2023-02-04T00:47:39.367Z,102183.94
2023-02-04T00:50:09.638Z,102193.22
2023-02-04T00:52:40.427Z,102201.22
2023-02-04T00:55:13.594Z,102217.34
2023-02-04T00:57:43.713Z,102225.94
2023-02-04T01:00:14.788Z,102229.97
2023-02-04T01:02:45.032Z,102238.72
2023-02-04T01:05:15.499Z,102231.94
2023-02-04T01:07:45.694Z,102247.84
2023-02-04T01:10:18.993Z,102243.81
2023-02-04T01:12:50.395Z,102262.88
2023-02-04T01:15:20.682Z,102221.38
2023-02-04T01:17:50.890Z,102228.19
2023-02-04T01:20:21.252Z,102279.94
2023-02-04T01:22:52.161Z,102283.34
2023-02-04T01:25:25.451Z,102297.19
2023-02-04T01:27:57.769Z,102297.19
2023-02-04T01:30:27.940Z,102301.00
2023-02-04T01:32:59.189Z,102306.19
2023-02-04T01:35:29.617Z,102302.59
2023-02-04T01:38:02.309Z,102307.78
2023-02-04T01:40:35.463Z,102311.41
2023-02-04T01:43:05.643Z,102320.00
2023-02-04T01:45:36.347Z,102321.59
2023-02-04T01:48:07.761Z,102332.75
2023-02-04T01:50:37.908Z,102336.88
2023-02-04T01:53:08.136Z,102342.09
2023-02-04T01:55:41.151Z,102350.44
2023-02-04T01:58:13.094Z,102360.94
2023-02-04T02:00:43.319Z,102368.91
2023-02-04T02:03:13.744Z,102367.78
2023-02-04T02:05:46.716Z,102379.34
2023-02-04T02:08:17.517Z,102382.97
2023-02-04T02:10:52.728Z,102387.28
2023-02-04T02:13:22.875Z,102396.81
2023-02-04T02:15:55.299Z,102381.84
2023-02-04T02:18:25.725Z,102393.75
2023-02-04T02:20:56.042Z,102398.31
2023-02-04T02:23:29.855Z,102405.19
2023-02-04T02:26:03.667Z,102402.03
2023-02-04T02:28:33.975Z,102406.00
2023-02-04T02:31:04.304Z,102425.78
2023-02-04T02:33:34.471Z,102426.94
2023-02-04T02:36:05.118Z,102429.91
2023-02-04T02:38:35.283Z,102430.84
2023-02-04T02:41:10.333Z,102432.22
2023-02-04T02:43:41.099Z,102436.75
2023-02-04T02:46:11.253Z,102443.81
2023-02-04T02:48:41.426Z,102453.13
2023-02-04T02:51:12.043Z,102462.88
2023-02-04T02:53:42.135Z,102459.91
2023-02-04T02:56:15.037Z,102468.75
2023-02-04T02:58:45.444Z,102476.03
2023-02-04T03:01:15.783Z,102480.09
2023-02-04T03:03:48.299Z,102478.06
2023-02-04T03:06:20.497Z,102487.56
2023-02-04T03:08:55.244Z,102495.72
2023-02-04T03:11:30.053Z,102500.22
2023-02-04T03:14:01.240Z,102507.97
2023-02-04T03:16:33.241Z,102518.78
2023-02-04T03:19:04.105Z,102523.34
2023-02-04T03:21:35.723Z,102525.59
2023-02-04T03:24:09.653Z,102533.94
2023-02-04T03:26:43.825Z,102545.94
2023-02-04T03:29:15.585Z,102553.63
2023-02-04T03:31:45.917Z,102564.91
2023-02-04T03:34:16.127Z,102570.34
2023-02-04T03:36:46.320Z,102578.00
2023-02-04T03:39:17.053Z,102586.19
2023-02-04T03:41:49.765Z,102581.47
2023-02-04T03:44:21.165Z,102590.81
2023-02-04T03:46:55.427Z,102586.78
2023-02-04T03:49:25.534Z,102585.84
2023-02-04T03:51:55.665Z,102594.47
2023-02-04T03:54:25.866Z,102593.56
2023-02-04T03:56:58.702Z,102597.66
2023-02-04T03:59:29.149Z,102603.06
2023-02-04T04:01:59.534Z,102607.16
2023-02-04T04:04:29.845Z,102612.13
2023-02-04T04:06:59.975Z,102617.09
2023-02-04T04:09:30.038Z,102619.78
2023-02-04T04:12:04.589Z,102623.38
2023-02-04T04:14:34.872Z,102624.00
2023-02-04T04:17:05.249Z,102627.63
2023-02-04T04:19:35.727Z,102629.88
2023-02-04T04:22:05.915Z,102635.75
2023-02-04T04:24:36.126Z,102630.50
2023-02-04T04:27:09.039Z,102631.81
2023-02-04T04:29:39.296Z,102646.72
2023-02-04T04:32:09.954Z,102659.81
2023-02-04T04:34:40.300Z,102658.88
2023-02-04T04:37:10.698Z,102667.44
2023-02-04T04:39:41.230Z,102674.19
2023-02-04T04:42:14.332Z,102675.28
2023-02-04T04:44:44.581Z,102670.75
2023-02-04T04:47:14.821Z,102678.47
2023-02-04T04:49:44.997Z,102681.00
2023-02-04T04:52:15.129Z,102691.41
2023-02-04T04:54:45.202Z,102705.00
2023-02-04T04:57:17.983Z,102700.03
2023-02-04T04:59:48.481Z,102700.03
2023-02-04T05:02:18.544Z,102712.19
2023-02-04T05:04:48.974Z,102708.50
2023-02-04T05:07:19.396Z,102710.03
2023-02-04T05:09:49.570Z,102707.50
2023-02-04T05:12:22.464Z,102713.59
2023-02-04T05:14:53.085Z,102717.66
2023-02-04T05:17:23.218Z,102724.88
2023-02-04T05:19:53.436Z,102725.06
2023-02-04T05:22:23.640Z,102728.66
2023-02-04T05:24:53.754Z,102734.78
2023-02-04T05:27:27.088Z,102738.31
2023-02-04T05:29:57.400Z,102740.59
2023-02-04T05:32:27.898Z,102745.75
2023-02-04T05:34:58.254Z,102752.03
2023-02-04T05:37:28.635Z,102757.53
2023-02-04T05:39:58.924Z,102761.81
2023-02-04T05:42:32.077Z,102773.09
2023-02-04T05:45:02.197Z,102762.84
2023-02-04T05:47:32.849Z,102762.38
2023-02-04T05:50:03.255Z,102773.66
2023-02-04T05:52:33.516Z,102770.84
2023-02-04T05:55:03.960Z,102791.41
2023-02-04T05:57:36.948Z,102793.41
2023-02-04T06:00:07.752Z,102792.91
2023-02-04T06:02:43.817Z,102797.41
2023-02-04T06:05:14.137Z,102800.31
2023-02-04T06:07:44.371Z,102797.06
2023-02-04T06:10:14.665Z,102794.53
2023-02-04T06:12:47.356Z,102803.06
2023-02-04T06:15:17.538Z,102805.25
2023-02-04T06:17:47.672Z,102812.88
2023-02-04T06:20:18.057Z,102823.22
2023-02-04T06:22:51.732Z,102824.97
2023-02-04T06:25:21.938Z,102836.00
2023-02-04T06:27:54.995Z,102832.75
2023-02-04T06:30:25.153Z,102851.94
2023-02-04T06:32:55.537Z,102852.16
2023-02-04T06:35:25.830Z,102853.03
2023-02-04T06:37:56.292Z,102849.16
2023-02-04T06:40:26.511Z,102856.75
2023-02-04T06:42:59.426Z,102863.72
2023-02-04T06:45:29.585Z,102850.78
2023-02-04T06:47:59.910Z,102861.00
2023-02-04T06:50:30.385Z,102858.06
2023-02-04T06:53:00.752Z,102854.72
2023-02-04T06:55:31.246Z,102863.03
2023-02-04T06:58:03.837Z,102871.91
2023-02-04T07:00:34.489Z,102882.09
2023-02-04T07:03:04.850Z,102879.09
2023-02-04T07:05:34.885Z,102886.56
2023-02-04T07:08:05.104Z,102886.56
2023-02-04T07:10:35.718Z,102902.78
2023-02-04T07:13:08.540Z,102908.59
2023-02-04T07:15:38.710Z,102913.22
2023-02-04T07:18:08.932Z,102915.56
2023-02-04T07:20:39.133Z,102919.69
2023-02-04T07:23:09.363Z,102913.72
2023-02-04T07:25:39.678Z,102915.94
2023-02-04T07:28:12.651Z,102919.25
2023-02-04T07:30:42.770Z,102923.31
2023-02-04T07:33:12.853Z,102925.97
2023-02-04T07:35:42.866Z,102942.34
2023-02-04T07:38:13.247Z,102942.63
2023-02-04T07:40:43.379Z,102942.25
2023-02-04T07:43:16.475Z,102936.88
2023-02-04T07:45:46.649Z,102934.69
2023-02-04T07:48:17.329Z,102947.53
2023-02-04T07:50:47.409Z,102952.53
2023-02-04T07:53:17.495Z,102958.81
2023-02-04T07:55:47.702Z,102964.88
2023-02-04T07:58:20.607Z,102970.25
2023-02-04T08:00:50.680Z,102980.63
2023-02-04T08:03:20.731Z,102974.94
2023-02-04T08:05:50.861Z,102976.31
2023-02-04T08:08:20.908Z,102971.00
2023-02-04T08:10:51.503Z,102969.06
2023-02-04T08:13:25.546Z,102967.16
2023-02-04T08:15:55.628Z,102969.47
2023-02-04T08:18:26.227Z,102979.44
2023-02-04T08:20:56.341Z,102976.25
2023-02-04T08:23:26.353Z,102974.00
2023-02-04T08:25:56.769Z,102974.09
2023-02-04T08:28:29.751Z,102975.06
2023-02-04T08:30:59.910Z,102974.81
2023-02-04T08:33:30.129Z,102972.91
2023-02-04T08:36:00.109Z,102971.19
2023-02-04T08:38:30.524Z,102970.09
2023-02-04T08:41:00.778Z,102978.22
2023-02-04T08:43:33.426Z,102980.97
2023-02-04T08:46:03.469Z,102993.16
2023-02-04T08:48:33.585Z,102998.47
2023-02-04T08:51:03.702Z,103000.72
2023-02-04T08:53:34.013Z,103007.75
2023-02-04T08:56:04.099Z,103005.59
2023-02-04T08:58:36.919Z,103009.50
2023-02-04T09:01:07.361Z,103008.22
2023-02-04T09:03:37.429Z,103012.09
2023-02-04T09:06:08.804Z,103018.19
2023-02-04T09:08:39.353Z,103018.88
2023-02-04T09:11:10.792Z,103024.53
2023-02-04T09:13:43.584Z,103022.72
2023-02-04T09:16:14.459Z,103025.78
2023-02-04T09:18:44.544Z,102981.88
2023-02-04T09:21:14.647Z,103036.47
2023-02-04T09:23:44.791Z,103037.88
2023-02-04T09:26:14.890Z,103045.47
2023-02-04T09:28:47.994Z,103053.91
2023-02-04T09:31:18.916Z,103040.13
2023-02-04T09:33:48.977Z,103052.31
2023-02-04T09:36:19.134Z,103042.63
2023-02-04T09:38:49.194Z,103042.44
2023-02-04T09:41:19.273Z,103048.19
2023-02-04T09:43:52.027Z,103051.00
2023-02-04T09:46:23.592Z,103055.09
2023-02-04T09:48:53.983Z,103055.59
2023-02-04T09:51:25.425Z,103065.81
2023-02-04T09:53:55.795Z,103064.91
2023-02-04T09:56:25.959Z,103065.31
2023-02-04T09:58:58.535Z,103076.38
2023-02-04T10:01:29.683Z,103076.84
2023-02-04T10:04:03.586Z,103080.31
2023-02-04T10:06:34.194Z,103036.66
2023-02-04T10:09:04.193Z,103087.66
2023-02-04T10:11:36.040Z,103093.09
2023-02-04T10:14:10.189Z,103099.06
2023-02-04T10:16:42.379Z,103098.41
2023-02-04T10:19:16.011Z,103092.06
2023-02-04T10:21:47.271Z,103098.88
2023-02-04T10:24:19.206Z,103110.00
2023-02-04T10:26:49.497Z,103102.72
2023-02-04T10:29:25.735Z,103102.13
2023-02-04T10:31:56.261Z,103112.13
2023-02-04T10:34:27.296Z,103063.66
2023-02-04T10:36:58.187Z,103110.91
2023-02-04T10:39:29.295Z,103113.25
2023-02-04T10:42:00.441Z,103119.28
2023-02-04T10:44:34.064Z,103120.34
2023-02-04T10:47:05.212Z,103115.03
2023-02-04T10:49:36.683Z,103112.91
2023-02-04T10:52:16.626Z,103112.03
2023-02-04T10:54:46.861Z,103116.09
2023-02-04T10:57:21.751Z,103113.16
2023-02-04T10:59:57.020Z,103105.44
2023-02-04T11:02:39.754Z,103112.09
2023-02-04T11:05:13.358Z,103108.13
2023-02-04T11:07:43.604Z,103103.59
2023-02-04T11:10:15.710Z,103108.09
2023-02-04T11:12:47.722Z,103120.28
2023-02-04T11:15:32.780Z,103114.97
2023-02-04T11:18:08.618Z,103124.06
2023-02-04T11:20:40.942Z,103119.28
2023-02-04T11:23:18.178Z,103129.91
2023-02-04T11:25:48.973Z,103121.03
2023-02-04T11:28:19.874Z,103119.91
2023-02-04T11:31:01.386Z,103118.34
2023-02-04T11:33:41.527Z,103123.34
2023-02-04T11:36:13.651Z,103127.41
2023-02-04T11:38:47.194Z,103118.38
2023-02-04T11:41:19.722Z,103121.53
2023-02-04T11:43:53.219Z,103119.72
2023-02-04T11:46:23.490Z,103125.63
2023-02-04T11:49:01.009Z,103137.75
2023-02-04T11:51:33.453Z,103124.03
2023-02-04T11:54:03.599Z,103124.97
2023-02-04T11:56:34.038Z,103121.34
2023-02-04T11:59:04.594Z,103125.00
2023-02-04T12:01:36.047Z,103127.25
2023-02-04T12:04:09.994Z,103125.28
2023-02-04T12:06:40.174Z,103124.41
2023-02-04T12:09:11.188Z,103118.72
2023-02-04T12:11:41.303Z,103117.34
2023-02-04T12:14:13.037Z,103120.75
2023-02-04T12:16:43.725Z,103119.41
2023-02-04T12:19:16.921Z,103124.63
2023-02-04T12:21:47.416Z,103137.16
2023-02-04T12:24:17.637Z,103132.34
2023-02-04T12:26:47.713Z,103124.59
2023-02-04T12:29:17.711Z,103119.38
2023-02-04T12:31:48.081Z,103133.94
2023-02-04T12:34:21.443Z,103144.41
2023-02-04T12:36:51.450Z,103142.59
2023-02-04T12:39:21.520Z,103135.53
2023-02-04T12:41:51.769Z,103131.16
2023-02-04T12:44:21.796Z,103140.03
2023-02-04T12:46:52.272Z,103138.69
2023-02-04T12:49:25.454Z,103148.97
2023-02-04T12:51:58.602Z,103148.50
2023-02-04T12:54:28.951Z,103154.66
2023-02-04T12:57:02.725Z,103150.78
2023-02-04T12:59:33.158Z,103153.06
2023-02-04T13:02:03.396Z,103164.69
2023-02-04T13:04:36.513Z,103153.69
2023-02-04T13:07:07.923Z,103155.00
2023-02-04T13:09:38.445Z,103155.19
2023-02-04T13:12:09.119Z,103154.03
2023-02-04T13:14:39.345Z,103125.75
2023-02-04T13:17:09.909Z,103163.16
2023-02-04T13:19:49.207Z,103163.16
2023-02-04T13:22:19.482Z,103164.97
2023-02-04T13:24:49.648Z,103169.25
2023-02-04T13:27:19.974Z,103173.59
2023-02-04T13:29:50.120Z,103164.38
2023-02-04T13:32:20.196Z,103168.41
2023-02-04T13:34:53.185Z,103160.00
2023-02-04T13:37:23.247Z,103165.41
2023-02-04T13:39:53.676Z,103162.50
2023-02-04T13:42:24.089Z,103168.38
2023-02-04T13:44:55.294Z,103167.97
2023-02-04T13:47:25.345Z,103172.41
2023-02-04T13:49:58.110Z,103164.25
2023-02-04T13:52:28.326Z,103170.50
2023-02-04T13:54:58.549Z,103161.19
2023-02-04T13:57:30.611Z,103165.75
2023-02-04T14:00:01.171Z,103155.53
2023-02-04T14:02:31.700Z,103155.75
2023-02-04T14:05:04.546Z,103152.38
2023-02-04T14:07:34.857Z,103162.41
2023-02-04T14:10:04.945Z,103154.19
2023-02-04T14:12:35.361Z,103158.31
2023-02-04T14:15:05.649Z,103159.44
2023-02-04T14:17:36.178Z,103154.88
2023-02-04T14:20:09.321Z,103154.19
2023-02-04T14:22:39.639Z,103151.69
2023-02-04T14:25:10.467Z,103151.47
2023-02-04T14:27:42.644Z,103156.47
2023-02-04T14:30:19.471Z,103159.69
2023-02-04T14:32:49.892Z,103161.03
2023-02-04T14:35:22.998Z,103167.63
2023-02-04T14:37:53.215Z,103165.34
2023-02-04T14:40:23.684Z,103157.59
2023-02-04T14:42:53.940Z,103161.47
2023-02-04T14:45:24.204Z,103171.88
2023-02-04T14:47:57.166Z,103174.13
2023-02-04T14:50:31.133Z,103173.19
2023-02-04T14:53:01.636Z,103180.44
2023-02-04T14:55:32.048Z,103175.38
2023-02-04T14:58:02.914Z,103179.66
2023-02-04T15:00:33.463Z,103170.66
2023-02-04T15:03:03.888Z,103172.69
2023-02-04T15:05:36.960Z,103170.81
2023-02-04T15:08:07.319Z,103168.72
2023-02-04T15:10:37.566Z,103171.41
2023-02-04T15:13:07.778Z,103166.84
2023-02-04T15:15:38.054Z,103163.16
2023-02-04T15:18:11.226Z,103171.50
2023-02-04T15:20:47.019Z,103167.81
2023-02-04T15:23:18.270Z,103168.72
2023-02-04T15:25:48.674Z,103167.81
2023-02-04T15:28:19.013Z,103167.78
2023-02-04T15:30:49.549Z,103175.25
2023-02-04T15:33:20.053Z,103175.72
2023-02-04T15:35:52.964Z,103170.22
2023-02-04T15:38:23.191Z,103169.75
2023-02-04T15:40:53.488Z,103169.25
2023-02-04T15:43:24.053Z,103171.06
2023-02-04T15:45:54.154Z,103161.03
2023-02-04T15:48:24.372Z,103175.28
2023-02-04T15:50:57.596Z,103171.44
2023-02-04T15:53:27.744Z,103173.69
2023-02-04T15:55:57.852Z,103183.00
2023-02-04T15:58:27.956Z,103183.41
2023-02-04T16:00:58.597Z,103181.84
2023-02-04T16:03:28.710Z,103187.50
2023-02-04T16:06:01.388Z,103187.00
2023-02-04T16:08:31.538Z,103189.47
2023-02-04T16:11:01.560Z,103189.91
2023-02-04T16:13:31.716Z,103191.91
2023-02-04T16:16:01.831Z,103198.41
2023-02-04T16:18:32.105Z,103199.97
2023-02-04T16:21:04.740Z,103211.91
2023-02-04T16:23:34.933Z,103202.38
2023-02-04T16:26:05.036Z,103211.91
2023-02-04T16:28:35.088Z,103199.47
2023-02-04T16:31:05.290Z,103199.03
2023-02-04T16:33:35.611Z,103194.75
2023-02-04T16:36:12.140Z,103196.59
2023-02-04T16:38:42.937Z,103191.63
2023-02-04T16:41:14.404Z,103195.69
2023-02-04T16:43:44.677Z,103195.22
2023-02-04T16:46:16.141Z,103154.78
2023-02-04T16:48:46.433Z,103199.63
2023-02-04T16:51:20.546Z,103203.69
2023-02-04T16:53:50.633Z,103207.28
2023-02-04T16:56:20.840Z,103205.94
2023-02-04T16:58:50.928Z,103214.59
2023-02-04T17:01:20.914Z,103214.59
2023-02-04T17:03:52.230Z,103213.94
2023-02-04T17:06:24.900Z,103214.19
2023-02-04T17:08:55.103Z,103217.84
2023-02-04T17:11:31.970Z,103221.47
2023-02-04T17:14:02.966Z,103226.41
2023-02-04T17:16:33.168Z,103228.63
2023-02-04T17:19:03.312Z,103219.75
2023-02-04T17:21:35.959Z,103228.56
2023-02-04T17:24:06.428Z,103230.41
2023-02-04T17:26:39.840Z,103236.31
2023-02-04T17:29:10.737Z,103231.75
2023-02-04T17:31:42.876Z,103233.09
2023-02-04T17:34:13.119Z,103239.41
2023-02-04T17:36:45.857Z,103239.16
2023-02-04T17:39:15.994Z,103233.03
2023-02-04T17:41:46.046Z,103234.19
2023-02-04T17:44:20.239Z,103235.28
2023-02-04T17:46:50.547Z,103241.59
2023-02-04T17:49:21.033Z,103239.09
2023-02-04T17:51:53.672Z,103239.75
2023-02-04T17:54:23.838Z,103234.28
2023-02-04T17:56:54.387Z,103236.53
2023-02-04T17:59:24.557Z,103238.53
2023-02-04T18:01:55.468Z,103227.91
2023-02-04T18:04:25.959Z,103226.41
2023-02-04T18:06:58.997Z,103226.81
2023-02-04T18:09:29.760Z,103230.34
2023-02-04T18:12:00.531Z,103233.22
2023-02-04T18:14:31.555Z,103237.06
2023-02-04T18:17:07.407Z,103232.75
2023-02-04T18:19:40.639Z,103239.47
2023-02-04T18:22:15.825Z,103234.44
2023-02-04T18:24:49.068Z,103225.28
2023-02-04T18:27:21.530Z,103239.66
2023-02-04T18:29:55.501Z,103230.56
2023-02-04T18:32:28.145Z,103233.84
2023-02-04T18:34:59.660Z,103231.97
2023-02-04T18:37:33.906Z,103231.13
2023-02-04T18:40:22.455Z,103233.13
2023-02-04T18:42:52.887Z,103235.13
2023-02-04T18:45:25.709Z,103228.56
2023-02-04T18:47:56.967Z,103235.13
2023-02-04T18:50:30.088Z,103238.69
2023-02-04T18:53:03.416Z,103246.56
2023-02-04T18:55:36.008Z,103248.81
2023-02-04T18:58:19.811Z,103244.91
2023-02-04T19:00:51.574Z,103252.53
2023-02-04T19:03:26.970Z,103252.94
2023-02-04T19:05:58.431Z,103252.94
2023-02-04T19:08:33.392Z,103254.28
2023-02-04T19:11:03.709Z,103263.97
2023-02-04T19:13:40.714Z,103253.75
2023-02-04T19:16:20.819Z,103257.91
2023-02-04T19:18:51.190Z,103261.16
2023-02-04T19:21:27.336Z,103260.75
2023-02-04T19:24:14.966Z,103264.66
2023-02-04T19:26:46.306Z,103262.66
2023-02-04T19:29:31.319Z,103265.91
2023-02-04T19:32:02.582Z,103265.66
2023-02-04T19:34:37.516Z,103269.03
2023-02-04T19:37:18.279Z,103269.03
2023-02-04T19:39:52.012Z,103264.59
2023-02-04T19:42:28.741Z,103268.25
2023-02-04T19:44:59.866Z,103271.47
2023-02-04T19:47:31.445Z,103272.78
2023-02-04T19:50:17.154Z,103273.69
2023-02-04T19:52:49.743Z,103273.69
2023-02-04T19:55:33.395Z,103270.97
2023-02-04T19:58:12.135Z,103275.72
2023-02-04T20:00:46.635Z,103271.38
2023-02-04T20:03:28.401Z,103271.81
2023-02-04T20:06:01.059Z,103276.50
2023-02-04T20:08:46.135Z,103272.22
2023-02-04T20:11:31.045Z,103274.84
2023-02-04T20:14:12.398Z,103274.38
2023-02-04T20:16:43.613Z,103271.44
2023-02-04T20:19:17.708Z,103274.69
2023-02-04T20:21:48.264Z,103269.72
2023-02-04T20:24:20.212Z,103273.13
2023-02-04T20:26:50.449Z,103268.41
2023-02-04T20:29:24.646Z,103265.41
2023-02-04T20:31:55.891Z,103259.75
2023-02-04T20:34:27.402Z,103262.50
2023-02-04T20:36:57.502Z,103264.06
2023-02-04T20:39:39.460Z,103266.38
2023-02-04T20:42:24.552Z,103264.19
2023-02-04T20:44:57.483Z,103265.06
2023-02-04T20:47:28.376Z,103262.56
2023-02-04T20:49:59.204Z,103262.75
2023-02-04T20:52:45.940Z,103260.00
2023-02-04T20:55:23.559Z,103256.34
2023-02-04T20:57:54.556Z,103258.84
2023-02-04T21:00:32.382Z,103251.53
2023-02-04T21:03:10.240Z,103253.53
2023-02-04T21:05:41.265Z,103242.41
2023-02-04T21:08:22.235Z,103242.66
2023-02-04T21:10:52.308Z,103240.84
2023-02-04T21:13:22.388Z,103245.81
2023-02-04T21:15:55.365Z,103229.28
2023-02-04T21:18:25.554Z,103230.91
2023-02-04T21:20:55.756Z,103236.66
2023-02-04T21:23:25.837Z,103232.78
2023-02-04T21:25:55.984Z,103218.28
2023-02-04T21:28:26.070Z,103216.84
2023-02-04T21:30:58.949Z,103220.16
2023-02-04T21:33:29.062Z,103214.94
2023-02-04T21:35:59.284Z,103208.81
2023-02-04T21:38:29.426Z,103216.66
2023-02-04T21:40:59.652Z,103228.22
2023-02-04T21:43:29.911Z,103221.41
2023-02-04T21:46:02.521Z,103227.06
2023-02-04T21:48:32.569Z,103228.38
2023-02-04T21:51:02.686Z,103224.88
2023-02-04T21:53:33.124Z,103220.88
2023-02-04T21:56:03.242Z,103218.69
2023-02-04T21:58:33.317Z,103220.31
2023-02-04T22:01:05.963Z,103217.47
2023-02-04T22:03:36.465Z,103220.50
2023-02-04T22:06:06.697Z,103222.25
2023-02-04T22:08:36.837Z,103227.38
2023-02-04T22:11:06.872Z,103217.97
2023-02-04T22:13:36.852Z,103215.88
2023-02-04T22:16:09.637Z,103220.09
2023-02-04T22:18:39.858Z,103222.72
2023-02-04T22:21:09.902Z,103222.22
2023-02-04T22:23:40.455Z,103219.59
2023-02-04T22:26:11.015Z,103224.22
2023-02-04T22:28:41.253Z,103223.03
2023-02-04T22:31:14.880Z,103230.00
2023-02-04T22:33:45.025Z,103222.69
2023-02-04T22:36:15.048Z,103218.53
2023-02-04T22:38:45.271Z,103208.06
2023-02-04T22:41:15.326Z,103204.66
2023-02-04T22:43:45.555Z,103209.78
2023-02-04T22:46:18.274Z,103207.44
2023-02-04T22:48:48.352Z,103204.69
2023-02-04T22:51:18.433Z,103209.66
2023-02-04T22:53:48.449Z,103203.66
2023-02-04T22:56:18.573Z,103206.53
2023-02-04T22:58:48.687Z,103213.06
2023-02-04T23:01:21.638Z,103211.25
2023-02-04T23:03:52.335Z,103213.19
2023-02-04T23:06:22.554Z,103225.13
2023-02-04T23:08:54.190Z,103220.78
2023-02-04T23:11:25.045Z,103220.03
2023-02-04T23:13:55.888Z,103212.31
2023-02-04T23:16:28.519Z,103214.69
2023-02-04T23:18:58.560Z,103213.50
2023-02-04T23:21:28.962Z,103217.00
2023-02-04T23:23:59.063Z,103217.69
2023-02-04T23:26:29.493Z,103218.06
2023-02-04T23:29:01.206Z,103222.13
2023-02-04T23:31:34.091Z,103224.06
2023-02-04T23:34:04.143Z,103228.28
2023-02-04T23:36:37.986Z,103235.56
2023-02-04T23:39:09.291Z,103238.03
2023-02-04T23:41:39.563Z,103240.53
2023-02-04T23:44:09.739Z,103233.75
2023-02-04T23:46:42.525Z,103238.47
2023-02-04T23:49:12.822Z,103238.72
2023-02-04T23:51:42.991Z,103233.75
2023-02-04T23:54:13.078Z,103217.06
2023-02-04T23:56:43.161Z,103210.25
2023-02-04T23:59:13.275Z,103200.72
